createdAt,value
2019-01-28T00:00:30.762Z,6.40
2019-01-28T00:01:40.218Z,6.40
2019-01-28T00:02:45.600Z,6.40
2019-01-28T00:03:50.841Z,6.40
2019-01-28T00:04:56.041Z,6.40
2019-01-28T00:06:01.287Z,6.40
2019-01-28T00:07:07.001Z,6.40
2019-01-28T00:08:12.266Z,6.40
2019-01-28T00:09:17.355Z,6.50
2019-01-28T00:10:22.444Z,6.50
2019-01-28T00:11:27.613Z,6.60
2019-01-28T00:12:32.868Z,6.50
2019-01-28T00:13:38.434Z,6.50
2019-01-28T00:14:47.113Z,6.50
2019-01-28T00:15:56.891Z,6.50
2019-01-28T00:17:01.957Z,6.50
2019-01-28T00:18:07.269Z,6.50
2019-01-28T00:19:15.444Z,6.50
2019-01-28T00:20:20.454Z,6.50
2019-01-28T00:21:25.833Z,6.50
2019-01-28T00:22:31.382Z,6.50
2019-01-28T00:23:36.529Z,6.50
2019-01-28T00:24:41.502Z,6.40
2019-01-28T00:25:49.636Z,7.80
2019-01-28T00:26:55.144Z,6.40
2019-01-28T00:28:00.793Z,6.40
2019-01-28T00:29:07.427Z,6.40
2019-01-28T00:30:12.779Z,6.40
2019-01-28T00:31:18.157Z,6.50
2019-01-28T00:32:26.531Z,6.40
2019-01-28T00:33:31.598Z,6.30
2019-01-28T00:34:39.730Z,6.30
2019-01-28T00:35:45.728Z,6.30
2019-01-28T00:36:53.413Z,6.30
2019-01-28T00:37:58.449Z,6.30
2019-01-28T00:39:06.088Z,6.30
2019-01-28T00:40:11.715Z,6.30
2019-01-28T00:41:20.179Z,6.30
2019-01-28T00:42:25.185Z,6.30
2019-01-28T00:43:33.245Z,6.30
2019-01-28T00:44:38.393Z,6.40
2019-01-28T00:45:47.266Z,6.40
2019-01-28T00:46:57.056Z,6.40
2019-01-28T00:48:03.796Z,6.40
2019-01-28T00:49:10.217Z,6.40
2019-01-28T00:50:17.946Z,6.40
2019-01-28T00:51:24.821Z,6.30
2019-01-28T00:52:30.966Z,6.30
2019-01-28T00:53:36.970Z,6.20
2019-01-28T00:54:44.503Z,6.30
2019-01-28T00:55:52.573Z,6.20
2019-01-28T00:57:02.371Z,6.30
2019-01-28T00:58:10.519Z,6.30
2019-01-28T00:59:18.535Z,6.30
2019-01-28T01:00:28.685Z,6.30
2019-01-28T01:01:44.888Z,6.30
2019-01-28T01:02:50.068Z,6.30
2019-01-28T01:03:55.421Z,6.30
2019-01-28T01:05:03.444Z,6.30
2019-01-28T01:06:08.641Z,6.30
2019-01-28T01:07:15.707Z,6.20
2019-01-28T01:08:22.587Z,6.20
2019-01-28T01:09:30.747Z,6.10
2019-01-28T01:10:35.746Z,6.10
2019-01-28T01:11:43.121Z,6.10
2019-01-28T01:12:48.192Z,6.10
2019-01-28T01:13:58.746Z,6.10
2019-01-28T01:15:08.120Z,6.10
2019-01-28T01:16:13.433Z,6.10
2019-01-28T01:17:21.546Z,6.00
2019-01-28T01:18:26.532Z,6.10
2019-01-28T01:19:31.572Z,6.00
2019-01-28T01:20:36.594Z,6.00
2019-01-28T01:21:42.180Z,6.00
2019-01-28T01:22:47.183Z,6.00
2019-01-28T01:23:52.132Z,6.00
2019-01-28T01:24:57.484Z,6.00
2019-01-28T01:26:05.337Z,6.00
2019-01-28T01:27:14.349Z,6.10
2019-01-28T01:28:22.358Z,6.10
2019-01-28T01:29:27.364Z,6.00
2019-01-28T01:30:32.344Z,6.00
2019-01-28T01:31:37.353Z,6.00
2019-01-28T01:32:46.975Z,6.00
2019-01-28T01:33:52.284Z,6.00
2019-01-28T01:35:00.243Z,6.00
2019-01-28T01:36:05.508Z,6.00
2019-01-28T01:37:10.766Z,6.00
2019-01-28T01:38:16.270Z,6.10
2019-01-28T01:39:21.289Z,6.10
2019-01-28T01:40:26.277Z,6.10
2019-01-28T01:41:31.266Z,6.10
2019-01-28T01:42:39.154Z,6.10
2019-01-28T01:43:44.265Z,6.10
2019-01-28T01:44:52.009Z,6.10
2019-01-28T01:45:57.015Z,6.10
2019-01-28T01:47:02.057Z,6.10
2019-01-28T01:48:07.189Z,6.10
2019-01-28T01:49:12.553Z,6.10
2019-01-28T01:50:17.652Z,6.10
2019-01-28T01:51:22.627Z,6.10
2019-01-28T01:52:27.822Z,7.40
2019-01-28T01:53:32.886Z,6.10
2019-01-28T01:54:38.964Z,6.10
2019-01-28T01:55:44.142Z,6.10
2019-01-28T01:56:49.162Z,6.10
2019-01-28T01:57:54.107Z,6.10
2019-01-28T01:58:59.085Z,6.10
2019-01-28T02:00:05.518Z,6.10
2019-01-28T02:01:14.289Z,6.50
2019-01-28T02:02:19.424Z,6.10
2019-01-28T02:03:24.418Z,6.10
2019-01-28T02:04:33.914Z,6.10
2019-01-28T02:05:42.176Z,6.10
2019-01-28T02:06:50.125Z,6.10
2019-01-28T02:07:55.120Z,6.00
2019-01-28T02:09:00.207Z,6.00
2019-01-28T02:10:07.391Z,6.00
2019-01-28T02:11:13.877Z,6.10
2019-01-28T02:12:18.912Z,6.10
2019-01-28T02:13:26.222Z,6.10
2019-01-28T02:14:31.219Z,6.10
2019-01-28T02:15:36.262Z,5.60
2019-01-28T02:16:41.221Z,6.10
2019-01-28T02:17:47.987Z,6.10
2019-01-28T02:18:56.162Z,6.10
2019-01-28T02:20:01.315Z,6.10
2019-01-28T02:21:06.396Z,6.10
2019-01-28T02:22:11.415Z,6.00
2019-01-28T02:23:18.036Z,6.00
2019-01-28T02:24:23.027Z,5.90
2019-01-28T02:25:30.530Z,5.90
2019-01-28T02:26:35.611Z,5.90
2019-01-28T02:27:40.666Z,5.90
2019-01-28T02:28:49.398Z,5.90
2019-01-28T02:29:54.378Z,5.80
2019-01-28T02:31:12.133Z,5.80
2019-01-28T02:32:17.267Z,5.80
2019-01-28T02:33:22.474Z,5.80
2019-01-28T02:34:27.444Z,5.80
2019-01-28T02:35:32.425Z,5.80
2019-01-28T02:36:37.693Z,5.70
2019-01-28T02:37:42.841Z,5.70
2019-01-28T02:38:47.864Z,5.70
2019-01-28T02:39:52.933Z,5.60
2019-01-28T02:40:57.953Z,5.60
2019-01-28T02:42:03.038Z,5.50
2019-01-28T02:43:08.025Z,5.50
2019-01-28T02:44:12.982Z,5.50
2019-01-28T02:45:18.409Z,5.50
2019-01-28T02:46:23.696Z,6.50
2019-01-28T02:47:28.860Z,5.40
2019-01-28T02:48:33.873Z,5.40
2019-01-28T02:49:38.829Z,5.40
2019-01-28T02:50:45.015Z,5.50
2019-01-28T02:51:50.085Z,5.50
2019-01-28T02:52:55.153Z,5.50
2019-01-28T02:54:00.106Z,6.40
2019-01-28T02:55:05.291Z,5.50
2019-01-28T02:56:10.329Z,5.50
2019-01-28T02:57:15.365Z,5.50
2019-01-28T02:58:20.424Z,5.50
2019-01-28T02:59:28.957Z,5.50
2019-01-28T03:00:34.002Z,5.50
2019-01-28T03:01:39.232Z,5.40
2019-01-28T03:02:44.421Z,5.40
2019-01-28T03:03:49.688Z,5.40
2019-01-28T03:04:54.682Z,5.30
2019-01-28T03:05:59.695Z,5.30
2019-01-28T03:07:04.797Z,5.40
2019-01-28T03:08:09.858Z,5.30
2019-01-28T03:09:14.937Z,5.30
2019-01-28T03:10:21.974Z,5.40
2019-01-28T03:11:26.978Z,5.30
2019-01-28T03:12:31.978Z,5.30
2019-01-28T03:13:36.990Z,5.30
2019-01-28T03:14:41.960Z,5.30
2019-01-28T03:15:46.983Z,5.30
2019-01-28T03:16:52.027Z,5.30
2019-01-28T03:17:57.076Z,5.30
2019-01-28T03:19:02.085Z,5.20
2019-01-28T03:20:08.825Z,5.30
2019-01-28T03:21:13.832Z,5.30
2019-01-28T03:22:18.797Z,5.30
2019-01-28T03:23:25.542Z,5.30
2019-01-28T03:24:30.530Z,5.20
2019-01-28T03:25:35.540Z,5.30
2019-01-28T03:26:40.629Z,5.30
2019-01-28T03:27:45.856Z,5.30
2019-01-28T03:28:50.829Z,5.30
2019-01-28T03:29:55.804Z,5.30
2019-01-28T03:31:00.869Z,5.20
2019-01-28T03:32:10.220Z,5.30
2019-01-28T03:33:15.043Z,5.20
2019-01-28T03:34:20.029Z,5.20
2019-01-28T03:35:25.026Z,5.30
2019-01-28T03:36:30.287Z,5.20
2019-01-28T03:37:35.744Z,5.20
2019-01-28T03:38:40.817Z,5.20
2019-01-28T03:39:45.791Z,5.20
2019-01-28T03:40:50.954Z,5.20
2019-01-28T03:41:56.028Z,5.20
2019-01-28T03:43:01.106Z,5.20
2019-01-28T03:44:06.279Z,5.20
2019-01-28T03:45:13.805Z,5.20
2019-01-28T03:46:18.830Z,5.20
2019-01-28T03:47:25.722Z,5.20
2019-01-28T03:48:30.783Z,5.20
2019-01-28T03:49:35.829Z,5.10
2019-01-28T03:50:40.917Z,5.10
2019-01-28T03:51:47.619Z,5.20
2019-01-28T03:52:52.997Z,6.10
2019-01-28T03:53:58.120Z,5.20
2019-01-28T03:55:03.356Z,5.20
2019-01-28T03:56:08.925Z,5.20
2019-01-28T03:57:13.892Z,5.20
2019-01-28T03:58:19.106Z,5.10
2019-01-28T03:59:24.216Z,5.10
2019-01-28T04:00:29.672Z,5.00
2019-01-28T04:01:34.718Z,5.00
2019-01-28T04:02:40.020Z,4.90
2019-01-28T04:03:45.036Z,4.90
2019-01-28T04:04:52.789Z,4.90
2019-01-28T04:05:57.985Z,4.90
2019-01-28T04:07:02.975Z,5.70
2019-01-28T04:08:07.981Z,4.90
2019-01-28T04:09:14.026Z,5.00
2019-01-28T04:10:20.989Z,5.00
2019-01-28T04:11:25.957Z,5.00
2019-01-28T04:12:31.259Z,5.00
2019-01-28T04:13:36.330Z,5.50
2019-01-28T04:14:41.305Z,5.00
2019-01-28T04:15:46.284Z,5.00
2019-01-28T04:16:51.295Z,5.00
2019-01-28T04:17:56.519Z,5.00
2019-01-28T04:19:01.621Z,5.00
2019-01-28T04:20:08.024Z,5.00
2019-01-28T04:21:15.482Z,5.00
2019-01-28T04:22:20.394Z,5.00
2019-01-28T04:23:25.379Z,5.00
2019-01-28T04:24:30.389Z,5.00
2019-01-28T04:25:35.818Z,5.00
2019-01-28T04:26:40.963Z,5.00
2019-01-28T04:27:45.928Z,5.00
2019-01-28T04:28:50.891Z,5.00
2019-01-28T04:29:56.148Z,5.00
2019-01-28T04:31:01.160Z,5.00
2019-01-28T04:32:06.529Z,4.90
2019-01-28T04:33:11.533Z,5.00
2019-01-28T04:34:16.646Z,4.90
2019-01-28T04:35:21.984Z,5.00
2019-01-28T04:36:27.173Z,5.00
2019-01-28T04:37:32.493Z,5.00
2019-01-28T04:38:37.735Z,5.00
2019-01-28T04:39:42.764Z,5.00
2019-01-28T04:40:48.066Z,5.00
2019-01-28T04:41:53.374Z,3.20
2019-01-28T04:42:58.446Z,4.90
2019-01-28T04:44:03.580Z,4.90
2019-01-28T04:45:11.269Z,4.90
2019-01-28T04:46:16.466Z,4.90
2019-01-28T04:47:21.492Z,4.90
2019-01-28T04:48:26.835Z,4.90
2019-01-28T04:49:31.970Z,5.20
2019-01-28T04:50:37.166Z,4.90
2019-01-28T04:51:43.013Z,5.00
2019-01-28T04:52:48.276Z,4.90
2019-01-28T04:53:53.328Z,5.00
2019-01-28T04:55:01.251Z,5.00
2019-01-28T04:56:06.467Z,5.00
2019-01-28T04:57:11.673Z,5.00
2019-01-28T04:58:16.762Z,5.00
2019-01-28T04:59:21.936Z,5.00
2019-01-28T05:00:27.492Z,4.90
2019-01-28T05:01:32.620Z,3.60
2019-01-28T05:02:39.329Z,3.10
2019-01-28T05:03:45.966Z,5.00
2019-01-28T05:04:51.461Z,5.10
2019-01-28T05:05:59.773Z,5.00
2019-01-28T05:07:05.067Z,5.70
2019-01-28T05:08:10.816Z,5.10
2019-01-28T05:09:16.016Z,5.20
2019-01-28T05:10:21.422Z,5.00
2019-01-28T05:11:27.524Z,5.00
2019-01-28T05:12:32.828Z,4.90
2019-01-28T05:13:37.831Z,5.00
2019-01-28T05:14:42.892Z,5.00
2019-01-28T05:15:48.011Z,5.10
2019-01-28T05:16:53.108Z,5.00
2019-01-28T05:17:58.095Z,5.00
2019-01-28T05:19:03.210Z,5.00
2019-01-28T05:20:10.769Z,4.00
2019-01-28T05:21:16.714Z,5.00
2019-01-28T05:22:24.155Z,5.00
2019-01-28T05:23:29.261Z,5.00
2019-01-28T05:24:34.349Z,5.10
2019-01-28T05:25:39.395Z,5.00
2019-01-28T05:26:44.365Z,5.10
2019-01-28T05:27:49.705Z,5.10
2019-01-28T05:28:54.986Z,5.60
2019-01-28T05:30:00.460Z,5.10
2019-01-28T05:31:11.297Z,5.10
2019-01-28T05:32:17.000Z,5.10
2019-01-28T05:33:25.340Z,5.10
2019-01-28T05:34:30.416Z,5.10
2019-01-28T05:36:13.294Z,5.00
2019-01-28T05:37:18.604Z,5.00
2019-01-28T05:38:26.793Z,5.00
2019-01-28T05:39:32.146Z,4.40
2019-01-28T05:40:37.870Z,5.00
2019-01-28T05:41:43.273Z,4.90
2019-01-28T05:42:48.286Z,4.90
2019-01-28T05:43:53.284Z,4.90
2019-01-28T05:44:58.292Z,4.90
2019-01-28T05:46:03.327Z,4.90
2019-01-28T05:47:08.393Z,4.90
2019-01-28T05:48:41.657Z,4.90
2019-01-28T05:49:48.063Z,4.90
2019-01-28T05:50:53.763Z,4.90
2019-01-28T05:51:58.737Z,4.90
2019-01-28T05:53:03.906Z,4.90
2019-01-28T05:54:09.001Z,4.90
2019-01-28T05:55:15.987Z,4.80
2019-01-28T05:56:28.813Z,4.80
2019-01-28T05:57:35.792Z,4.80
2019-01-28T05:58:51.413Z,4.80
2019-01-28T06:00:05.594Z,4.80
2019-01-28T06:01:10.998Z,4.70
2019-01-28T06:02:16.021Z,4.80
2019-01-28T06:03:21.246Z,4.70
2019-01-28T06:04:28.438Z,4.70
2019-01-28T06:05:33.865Z,4.80
2019-01-28T06:06:41.918Z,4.80
2019-01-28T06:07:48.270Z,4.80
2019-01-28T06:08:56.370Z,4.70
2019-01-28T06:10:01.493Z,4.80
2019-01-28T06:11:06.589Z,4.80
2019-01-28T06:12:11.596Z,4.80
2019-01-28T06:13:19.026Z,4.80
2019-01-28T06:14:25.888Z,4.80
2019-01-28T06:15:31.015Z,4.80
2019-01-28T06:16:36.405Z,4.80
2019-01-28T06:17:43.041Z,4.80
2019-01-28T06:18:48.588Z,4.80
2019-01-28T06:20:11.429Z,4.70
2019-01-28T06:21:16.682Z,4.70
2019-01-28T06:22:21.942Z,4.70
2019-01-28T06:23:29.532Z,5.00
2019-01-28T06:24:35.279Z,4.70
2019-01-28T06:25:43.662Z,4.70
2019-01-28T06:26:50.538Z,4.70
2019-01-28T06:27:57.371Z,4.70
2019-01-28T06:29:03.420Z,4.70
2019-01-28T06:30:13.443Z,4.70
2019-01-28T06:31:22.794Z,4.70
2019-01-28T06:32:31.120Z,4.70
2019-01-28T06:33:38.615Z,4.70
2019-01-28T06:34:47.755Z,4.70
2019-01-28T06:35:55.376Z,4.70
2019-01-28T06:37:06.639Z,6.00
2019-01-28T06:38:20.515Z,4.70
2019-01-28T06:39:33.512Z,4.70
2019-01-28T06:40:41.235Z,4.60
2019-01-28T06:41:52.313Z,4.70
2019-01-28T06:42:57.960Z,4.60
2019-01-28T06:44:08.819Z,4.40
2019-01-28T06:45:15.515Z,4.60
2019-01-28T06:46:20.815Z,4.70
2019-01-28T06:47:26.194Z,4.70
2019-01-28T06:48:31.884Z,4.60
2019-01-28T06:49:39.194Z,4.60
2019-01-28T06:50:45.250Z,5.00
2019-01-28T06:51:50.308Z,4.60
2019-01-28T06:52:56.959Z,4.60
2019-01-28T06:54:02.608Z,4.60
2019-01-28T06:55:08.934Z,4.60
2019-01-28T06:56:14.106Z,4.60
2019-01-28T06:57:19.357Z,4.50
2019-01-28T06:58:24.850Z,4.70
2019-01-28T06:59:34.475Z,4.60
2019-01-28T07:00:40.107Z,4.60
2019-01-28T07:01:45.794Z,4.60
2019-01-28T07:02:52.730Z,4.50
2019-01-28T07:03:59.369Z,4.60
2019-01-28T07:05:07.066Z,4.60
2019-01-28T07:06:13.364Z,4.60
2019-01-28T07:07:18.805Z,4.60
2019-01-28T07:08:26.292Z,4.70
2019-01-28T07:09:33.249Z,4.70
2019-01-28T07:10:40.357Z,4.60
2019-01-28T07:11:45.825Z,4.60
2019-01-28T07:12:51.333Z,6.60
2019-01-28T07:13:57.216Z,4.60
2019-01-28T07:15:02.671Z,4.60
2019-01-28T07:16:09.316Z,5.00
2019-01-28T07:17:15.098Z,4.70
2019-01-28T07:18:29.092Z,4.70
2019-01-28T07:19:36.511Z,4.70
2019-01-28T07:20:44.402Z,4.70
2019-01-28T07:21:50.431Z,4.60
2019-01-28T07:22:55.975Z,4.60
2019-01-28T07:24:02.016Z,4.70
2019-01-28T07:25:08.156Z,4.60
2019-01-28T07:26:14.032Z,4.60
2019-01-28T07:27:19.385Z,4.60
2019-01-28T07:28:49.026Z,4.60
2019-01-28T07:29:58.385Z,4.50
2019-01-28T07:31:06.343Z,4.60
2019-01-28T07:32:11.693Z,4.60
2019-01-28T07:35:17.389Z,4.60
2019-01-28T07:36:25.109Z,4.90
2019-01-28T07:37:57.564Z,4.50
2019-01-28T07:39:05.785Z,4.50
2019-01-28T07:40:13.238Z,4.50
2019-01-28T07:41:19.178Z,4.50
2019-01-28T07:42:25.011Z,4.50
2019-01-28T07:43:33.838Z,4.50
2019-01-28T07:44:44.265Z,4.50
2019-01-28T07:45:50.930Z,4.50
2019-01-28T07:47:05.280Z,4.60
2019-01-28T07:48:12.146Z,4.60
2019-01-28T07:49:20.270Z,4.60
2019-01-28T07:50:25.888Z,4.10
2019-01-28T07:51:32.603Z,4.70
2019-01-28T07:52:45.349Z,4.70
2019-01-28T07:53:55.066Z,4.70
2019-01-28T07:55:00.427Z,4.70
2019-01-28T07:56:06.377Z,4.70
2019-01-28T07:57:14.540Z,4.70
2019-01-28T07:58:22.160Z,4.80
2019-01-28T07:59:30.743Z,4.70
2019-01-28T08:00:41.833Z,4.70
2019-01-28T08:01:52.529Z,6.50
2019-01-28T08:03:00.931Z,5.40
2019-01-28T08:04:07.692Z,4.70
2019-01-28T08:05:15.947Z,4.70
2019-01-28T08:06:21.591Z,4.70
2019-01-28T08:07:29.742Z,4.70
2019-01-28T08:08:37.036Z,5.40
2019-01-28T08:09:42.827Z,4.70
2019-01-28T08:10:52.346Z,4.70
2019-01-28T08:11:59.024Z,4.70
2019-01-28T08:13:04.802Z,5.40
2019-01-28T08:14:32.466Z,4.80
2019-01-28T08:15:39.479Z,4.80
2019-01-28T08:16:53.140Z,3.50
2019-01-28T08:17:58.696Z,4.80
2019-01-28T08:19:05.253Z,4.80
2019-01-28T08:20:28.880Z,4.80
2019-01-28T08:21:34.525Z,4.90
2019-01-28T08:22:39.845Z,4.90
2019-01-28T08:23:47.191Z,4.90
2019-01-28T08:24:52.594Z,4.90
2019-01-28T08:26:00.955Z,4.90
2019-01-28T08:27:07.211Z,4.90
2019-01-28T08:28:12.330Z,4.90
2019-01-28T08:29:18.973Z,4.90
2019-01-28T08:30:30.877Z,4.80
2019-01-28T08:31:39.752Z,4.70
2019-01-28T08:32:47.216Z,4.70
2019-01-28T08:33:52.625Z,4.70
2019-01-28T08:34:58.537Z,4.60
2019-01-28T08:36:03.860Z,4.80
2019-01-28T08:37:09.808Z,4.70
2019-01-28T08:38:15.241Z,4.70
2019-01-28T08:39:20.865Z,4.70
2019-01-28T08:40:26.745Z,4.70
2019-01-28T08:41:32.888Z,4.80
2019-01-28T08:42:38.076Z,4.80
2019-01-28T08:43:49.024Z,4.80
2019-01-28T08:44:56.204Z,4.80
2019-01-28T08:46:01.562Z,4.80
2019-01-28T08:47:08.388Z,4.80
2019-01-28T08:48:18.368Z,5.50
2019-01-28T08:49:22.006Z,4.60
2019-01-28T08:50:30.265Z,4.70
2019-01-28T08:51:36.898Z,4.80
2019-01-28T08:52:42.840Z,4.80
2019-01-28T08:53:48.644Z,4.80
2019-01-28T08:54:55.931Z,4.80
2019-01-28T08:56:03.924Z,4.80
2019-01-28T08:57:15.654Z,4.60
2019-01-28T08:58:22.121Z,4.70
2019-01-28T08:59:28.876Z,5.10
2019-01-28T09:00:44.255Z,4.80
2019-01-28T09:01:53.069Z,4.70
2019-01-28T09:03:07.457Z,4.70
2019-01-28T09:04:24.434Z,4.70
2019-01-28T09:05:32.815Z,4.70
2019-01-28T09:06:42.448Z,5.40
2019-01-28T09:07:51.283Z,4.80
2019-01-28T09:09:01.514Z,4.70
2019-01-28T09:10:11.495Z,4.70
2019-01-28T09:11:16.756Z,4.70
2019-01-28T09:12:22.197Z,4.80
2019-01-28T09:13:38.371Z,4.80
2019-01-28T09:14:44.973Z,4.80
2019-01-28T09:15:57.417Z,4.80
2019-01-28T09:17:06.751Z,4.80
2019-01-28T09:18:14.509Z,4.80
2019-01-28T09:19:19.936Z,4.90
2019-01-28T09:20:25.667Z,4.80
2019-01-28T09:21:31.647Z,4.70
2019-01-28T09:22:38.330Z,4.80
2019-01-28T09:23:48.772Z,4.80
2019-01-28T09:24:54.184Z,4.90
2019-01-28T09:25:59.937Z,4.90
2019-01-28T09:27:08.823Z,4.90
2019-01-28T09:28:18.405Z,4.90
2019-01-28T09:29:23.602Z,5.00
2019-01-28T09:30:36.201Z,5.10
2019-01-28T09:31:43.814Z,5.00
2019-01-28T09:32:49.492Z,5.50
2019-01-28T09:33:54.834Z,5.10
2019-01-28T09:35:00.531Z,5.10
2019-01-28T09:36:07.170Z,5.10
2019-01-28T09:37:14.290Z,5.10
2019-01-28T09:38:20.099Z,5.20
2019-01-28T09:39:33.020Z,5.30
2019-01-28T09:40:38.557Z,5.20
2019-01-28T09:41:44.331Z,5.20
2019-01-28T09:42:50.453Z,5.30
2019-01-28T09:44:01.503Z,5.30
2019-01-28T09:45:09.402Z,5.30
2019-01-28T09:46:14.730Z,5.40
2019-01-28T09:47:23.291Z,5.40
2019-01-28T09:48:53.508Z,7.40
2019-01-28T09:49:58.789Z,5.40
2019-01-28T09:51:04.136Z,5.40
2019-01-28T09:52:11.785Z,5.40
2019-01-28T09:53:17.432Z,5.40
2019-01-28T09:54:23.100Z,5.40
2019-01-28T09:55:28.769Z,5.40
2019-01-28T09:56:34.384Z,6.80
2019-01-28T09:57:40.024Z,5.40
2019-01-28T09:58:45.844Z,5.40
2019-01-28T09:59:51.882Z,5.50
2019-01-28T10:01:00.188Z,5.50
2019-01-28T10:02:07.077Z,5.50
2019-01-28T10:03:12.722Z,5.40
2019-01-28T10:04:18.436Z,5.60
2019-01-28T10:05:24.276Z,5.60
2019-01-28T10:06:33.862Z,5.20
2019-01-28T10:07:40.981Z,5.60
2019-01-28T10:08:48.368Z,5.60
2019-01-28T10:09:53.676Z,5.50
2019-01-28T10:10:59.248Z,5.40
2019-01-28T10:12:10.495Z,5.70
2019-01-28T10:13:17.518Z,5.70
2019-01-28T10:14:26.555Z,5.80
2019-01-28T10:15:33.523Z,5.80
2019-01-28T10:16:43.807Z,6.60
2019-01-28T10:17:52.518Z,5.80
2019-01-28T10:19:00.171Z,5.80
2019-01-28T10:20:07.833Z,5.80
2019-01-28T10:21:14.331Z,5.80
2019-01-28T10:22:35.891Z,5.90
2019-01-28T10:23:41.968Z,5.80
2019-01-28T10:24:49.587Z,6.00
2019-01-28T10:25:57.776Z,5.80
2019-01-28T10:27:02.735Z,5.80
2019-01-28T10:28:07.957Z,5.70
2019-01-28T10:29:13.273Z,5.90
2019-01-28T10:30:23.286Z,5.80
2019-01-28T10:31:30.391Z,5.80
2019-01-28T10:32:36.400Z,5.90
2019-01-28T10:33:43.450Z,5.80
2019-01-28T10:34:56.075Z,6.30
2019-01-28T10:36:01.641Z,5.80
2019-01-28T10:37:13.272Z,5.80
2019-01-28T10:38:19.274Z,6.30
2019-01-28T10:39:29.054Z,5.80
2019-01-28T10:40:35.501Z,5.80
2019-01-28T10:41:44.051Z,5.80
2019-01-28T10:42:50.170Z,5.80
2019-01-28T10:43:59.289Z,5.70
2019-01-28T10:45:12.878Z,5.70
2019-01-28T10:46:20.306Z,5.80
2019-01-28T10:47:30.346Z,5.50
2019-01-28T10:48:36.180Z,5.80
2019-01-28T10:49:44.454Z,5.70
2019-01-28T10:50:51.424Z,6.50
2019-01-28T10:52:00.011Z,5.80
2019-01-28T10:53:08.322Z,6.00
2019-01-28T10:54:15.086Z,6.00
2019-01-28T10:55:25.081Z,5.80
2019-01-28T10:56:31.046Z,5.70
2019-01-28T10:57:39.053Z,5.80
2019-01-28T10:58:45.731Z,4.30
2019-01-28T10:59:52.010Z,5.70
2019-01-28T11:00:59.366Z,5.80
2019-01-28T11:02:05.640Z,5.80
2019-01-28T11:03:14.351Z,5.60
2019-01-28T11:04:20.492Z,4.60
2019-01-28T11:05:26.862Z,5.80
2019-01-28T11:06:36.569Z,5.80
2019-01-28T11:07:43.677Z,5.80
2019-01-28T11:09:28.846Z,5.90
2019-01-28T11:10:35.828Z,5.80
2019-01-28T11:11:48.164Z,5.80
2019-01-28T11:12:54.886Z,5.80
2019-01-28T11:14:01.557Z,5.80
2019-01-28T11:15:13.835Z,5.70
2019-01-28T11:16:24.694Z,6.80
2019-01-28T11:17:36.713Z,5.70
2019-01-28T11:18:57.556Z,6.30
2019-01-28T11:20:05.814Z,5.70
2019-01-28T11:22:03.037Z,5.60
2019-01-28T11:23:18.612Z,5.60
2019-01-28T11:24:24.903Z,5.60
2019-01-28T11:25:33.744Z,4.40
2019-01-28T11:26:40.949Z,5.60
2019-01-28T11:27:48.351Z,5.60
2019-01-28T11:28:56.650Z,6.30
2019-01-28T11:30:04.877Z,5.70
2019-01-28T11:31:39.108Z,5.70
2019-01-28T11:35:02.054Z,5.00
2019-01-28T11:36:08.065Z,5.70
2019-01-28T11:37:16.024Z,5.30
2019-01-28T11:38:23.820Z,5.70
2019-01-28T11:39:30.465Z,5.70
2019-01-28T11:40:36.019Z,5.70
2019-01-28T11:41:42.434Z,5.70
2019-01-28T11:42:51.321Z,5.70
2019-01-28T11:43:57.282Z,5.70
2019-01-28T11:45:07.115Z,5.70
2019-01-28T11:46:12.555Z,5.70
2019-01-28T11:47:17.904Z,5.70
2019-01-28T11:48:24.956Z,5.70
2019-01-28T11:49:31.453Z,5.70
2019-01-28T11:50:37.877Z,5.80
2019-01-28T11:51:59.222Z,5.80
2019-01-28T11:53:04.905Z,6.80
2019-01-28T11:54:10.413Z,5.80
2019-01-28T11:55:18.591Z,5.80
2019-01-28T11:56:23.852Z,5.80
2019-01-28T11:57:28.997Z,5.80
2019-01-28T11:58:36.963Z,5.80
2019-01-28T11:59:52.755Z,5.80
2019-01-28T12:01:13.954Z,4.90
2019-01-28T12:02:22.459Z,5.80
2019-01-28T12:03:27.825Z,5.80
2019-01-28T12:04:36.931Z,5.80
2019-01-28T12:05:46.840Z,5.80
2019-01-28T12:06:54.702Z,5.80
2019-01-28T12:08:02.380Z,5.80
2019-01-28T12:09:12.016Z,5.80
2019-01-28T12:10:17.344Z,6.60
2019-01-28T12:11:26.653Z,5.80
2019-01-28T12:12:32.095Z,5.80
2019-01-28T12:13:44.415Z,5.80
2019-01-28T12:14:50.839Z,5.80
2019-01-28T12:15:56.164Z,6.60
2019-01-28T12:17:01.453Z,5.80
2019-01-28T12:18:13.106Z,5.80
2019-01-28T12:19:33.542Z,5.80
2019-01-28T12:21:10.304Z,5.80
2019-01-28T12:22:15.824Z,5.80
2019-01-28T12:23:23.818Z,5.80
2019-01-28T12:24:31.162Z,5.80
2019-01-28T12:25:40.737Z,5.90
2019-01-28T12:26:45.752Z,5.90
2019-01-28T12:27:58.091Z,5.80
2019-01-28T12:29:05.908Z,4.60
2019-01-28T12:30:17.908Z,5.80
2019-01-28T12:31:23.243Z,5.80
2019-01-28T12:32:36.043Z,5.80
2019-01-28T12:33:41.372Z,5.80
2019-01-28T12:35:33.556Z,5.80
2019-01-28T12:36:40.192Z,5.80
2019-01-28T12:37:48.650Z,5.80
2019-01-28T12:38:53.904Z,5.80
2019-01-28T12:39:59.424Z,5.80
2019-01-28T12:41:04.749Z,5.80
2019-01-28T12:42:18.292Z,5.80
2019-01-28T12:43:23.860Z,6.00
2019-01-28T12:44:36.345Z,5.80
2019-01-28T12:45:47.800Z,5.70
2019-01-28T12:48:42.694Z,5.80
2019-01-28T12:49:56.623Z,5.80
2019-01-28T12:51:08.187Z,5.60
2019-01-28T12:52:15.145Z,5.80
2019-01-28T12:53:44.810Z,5.70
2019-01-28T12:54:50.100Z,5.80
2019-01-28T12:55:55.569Z,6.30
2019-01-28T12:57:00.697Z,5.80
2019-01-28T12:58:12.075Z,6.10
2019-01-28T12:59:31.819Z,6.40
2019-01-28T13:00:48.732Z,5.70
2019-01-28T13:01:55.020Z,5.70
2019-01-28T13:03:00.632Z,5.70
2019-01-28T13:04:08.866Z,5.80
2019-01-28T13:05:16.893Z,7.50
2019-01-28T13:06:24.969Z,5.70
2019-01-28T13:07:32.576Z,5.60
2019-01-28T13:08:48.065Z,5.60
2019-01-28T13:09:56.516Z,5.60
2019-01-28T13:11:04.850Z,5.60
2019-01-28T13:12:13.322Z,7.50
2019-01-28T13:13:21.688Z,7.00
2019-01-28T13:14:28.599Z,5.60
2019-01-28T13:15:35.961Z,6.20
2019-01-28T13:16:51.191Z,5.60
2019-01-28T13:17:57.398Z,5.70
2019-01-28T13:19:06.009Z,5.70
2019-01-28T13:20:12.138Z,5.70
2019-01-28T13:21:20.555Z,5.60
2019-01-28T13:22:26.612Z,5.60
2019-01-28T13:23:35.566Z,5.20
2019-01-28T13:24:43.845Z,5.70
2019-01-28T13:25:50.930Z,7.00
2019-01-28T13:27:02.899Z,5.90
2019-01-28T13:28:21.569Z,6.30
2019-01-28T13:29:27.870Z,5.60
2019-01-28T13:30:38.986Z,5.60
2019-01-28T13:31:44.561Z,5.60
2019-01-28T13:32:50.454Z,5.60
2019-01-28T13:34:04.585Z,5.70
2019-01-28T13:35:12.429Z,5.70
2019-01-28T13:36:27.231Z,5.70
2019-01-28T13:37:41.997Z,5.70
2019-01-28T13:38:51.703Z,5.70
2019-01-28T13:39:59.041Z,5.70
2019-01-28T13:41:05.265Z,5.60
2019-01-28T13:42:14.236Z,5.70
2019-01-28T13:43:19.880Z,5.60
2019-01-28T13:44:25.957Z,3.80
2019-01-28T13:46:36.192Z,5.60
2019-01-28T13:47:43.083Z,5.60
2019-01-28T13:48:48.824Z,6.20
2019-01-28T13:49:55.140Z,5.60
2019-01-28T13:51:06.517Z,5.60
2019-01-28T13:52:16.033Z,5.60
2019-01-28T13:53:24.291Z,5.60
2019-01-28T13:54:31.695Z,5.70
2019-01-28T13:55:43.393Z,5.70
2019-01-28T13:56:54.803Z,5.70
2019-01-28T13:58:02.584Z,5.70
2019-01-28T13:59:16.438Z,5.80
2019-01-28T14:00:22.822Z,5.70
2019-01-28T14:01:30.085Z,5.80
2019-01-28T14:02:36.501Z,5.80
2019-01-28T14:03:42.284Z,5.10
2019-01-28T14:05:03.148Z,5.70
2019-01-28T14:06:13.057Z,5.70
2019-01-28T14:07:19.747Z,5.70
2019-01-28T14:08:25.413Z,5.70
2019-01-28T14:09:32.403Z,5.70
2019-01-28T14:10:38.264Z,5.60
2019-01-28T14:11:48.073Z,5.70
2019-01-28T14:12:53.596Z,5.60
2019-01-28T14:13:59.041Z,5.60
2019-01-28T14:15:05.083Z,5.60
2019-01-28T14:16:10.730Z,5.60
2019-01-28T14:17:20.818Z,5.60
2019-01-28T14:18:28.506Z,5.50
2019-01-28T14:19:37.624Z,5.50
2019-01-28T14:21:26.345Z,5.60
2019-01-28T14:22:31.406Z,5.50
2019-01-28T14:23:42.371Z,5.60
2019-01-28T14:24:48.465Z,5.60
2019-01-28T14:25:53.530Z,5.60
2019-01-28T14:26:58.906Z,5.60
2019-01-28T14:28:08.617Z,6.20
2019-01-28T14:29:14.705Z,5.60
2019-01-28T14:30:24.738Z,5.60
2019-01-28T14:31:31.394Z,5.60
2019-01-28T14:32:36.941Z,5.60
2019-01-28T14:33:45.727Z,5.60
2019-01-28T14:34:58.440Z,5.60
2019-01-28T14:36:03.534Z,5.60
2019-01-28T14:37:09.530Z,5.60
2019-01-28T14:38:16.576Z,5.60
2019-01-28T14:39:24.683Z,5.50
2019-01-28T14:40:37.386Z,5.60
2019-01-28T14:41:50.195Z,5.60
2019-01-28T14:42:58.055Z,5.60
2019-01-28T14:44:06.138Z,5.60
2019-01-28T14:45:13.301Z,5.60
2019-01-28T14:46:37.802Z,5.70
2019-01-28T14:47:45.263Z,5.60
2019-01-28T14:48:52.189Z,5.60
2019-01-28T14:50:00.387Z,5.60
2019-01-28T14:51:06.073Z,5.70
2019-01-28T14:52:12.444Z,5.70
2019-01-28T14:53:32.728Z,5.70
2019-01-28T14:54:49.875Z,5.70
2019-01-28T14:56:02.302Z,5.70
2019-01-28T14:57:13.203Z,5.70
2019-01-28T14:58:31.103Z,5.80
2019-01-28T14:59:38.899Z,5.80
2019-01-28T15:00:47.461Z,5.50
2019-01-28T15:01:58.441Z,5.80
2019-01-28T15:03:05.694Z,5.10
2019-01-28T15:04:13.545Z,5.80
2019-01-28T15:05:24.272Z,5.80
2019-01-28T15:06:32.293Z,5.80
2019-01-28T15:07:40.136Z,5.70
2019-01-28T15:08:46.470Z,5.70